sensor_id;sensor_type;location;lat;lon;timestamp;temperature;humidity
1878;DHT22;939;51.426;6.972;2022-07-21T00:00:16;21.50;99.90
1878;DHT22;939;51.426;6.972;2022-07-21T00:02:43;21.40;99.90
1878;DHT22;939;51.426;6.972;2022-07-21T00:05:10;21.30;99.90
1878;DHT22;939;51.426;6.972;2022-07-21T00:07:38;21.20;99.90
1878;DHT22;939;51.426;6.972;2022-07-21T00:10:06;21.10;99.90
1878;DHT22;939;51.426;6.972;2022-07-21T00:12:33;21.20;99.90
1878;DHT22;939;51.426;6.972;2022-07-21T00:15:00;21.20;99.90
1878;DHT22;939;51.426;6.972;2022-07-21T00:17:27;21.30;99.90
1878;DHT22;939;51.426;6.972;2022-07-21T00:19:54;21.40;99.90
1878;DHT22;939;51.426;6.972;2022-07-21T00:22:21;21.50;99.90
1878;DHT22;939;51.426;6.972;2022-07-21T00:24:49;21.50;99.90
1878;DHT22;939;51.426;6.972;2022-07-21T00:27:16;21.50;99.90
1878;DHT22;939;51.426;6.972;2022-07-21T00:29:43;21.50;99.90
1878;DHT22;939;51.426;6.972;2022-07-21T00:32:10;21.50;99.90
1878;DHT22;939;51.426;6.972;2022-07-21T00:34:37;21.50;99.90
1878;DHT22;939;51.426;6.972;2022-07-21T00:37:04;21.60;99.90
1878;DHT22;939;51.426;6.972;2022-07-21T00:39:31;21.60;99.90
1878;DHT22;939;51.426;6.972;2022-07-21T00:41:59;21.60;99.90
1878;DHT22;939;51.426;6.972;2022-07-21T00:44:27;21.60;99.90
1878;DHT22;939;51.426;6.972;2022-07-21T00:46:54;21.60;99.90
1878;DHT22;939;51.426;6.972;2022-07-21T00:49:22;21.60;99.90
1878;DHT22;939;51.426;6.972;2022-07-21T00:51:49;21.60;99.90
1878;DHT22;939;51.426;6.972;2022-07-21T00:54:18;21.50;99.90
1878;DHT22;939;51.426;6.972;2022-07-21T00:56:46;21.50;99.90
1878;DHT22;939;51.426;6.972;2022-07-21T00:59:15;21.40;99.90
1878;DHT22;939;51.426;6.972;2022-07-21T01:01:41;21.30;99.90
1878;DHT22;939;51.426;6.972;2022-07-21T01:04:08;21.30;99.90
1878;DHT22;939;51.426;6.972;2022-07-21T05:30:43;19.80;99.90
1878;DHT22;939;51.426;6.972;2022-07-21T05:33:10;19.90;99.90
1878;DHT22;939;51.426;6.972;2022-07-21T05:35:37;19.90;99.90
1878;DHT22;939;51.426;6.972;2022-07-21T05:38:04;20.00;99.90
1878;DHT22;939;51.426;6.972;2022-07-21T05:40:32;20.00;99.90
1878;DHT22;939;51.426;6.972;2022-07-21T05:42:59;19.80;99.90
1878;DHT22;939;51.426;6.972;2022-07-21T05:45:29;19.90;99.90
1878;DHT22;939;51.426;6.972;2022-07-21T05:47:57;19.80;99.90
1878;DHT22;939;51.426;6.972;2022-07-21T05:50:24;19.80;99.90
1878;DHT22;939;51.426;6.972;2022-07-21T05:52:52;19.90;99.90
1878;DHT22;939;51.426;6.972;2022-07-21T05:55:18;19.90;99.90
1878;DHT22;939;51.426;6.972;2022-07-21T05:57:45;19.90;99.90
1878;DHT22;939;51.426;6.972;2022-07-21T06:00:15;19.90;99.90
1878;DHT22;939;51.426;6.972;2022-07-21T06:02:45;20.00;99.90
1878;DHT22;939;51.426;6.972;2022-07-21T06:05:14;20.10;99.90
1878;DHT22;939;51.426;6.972;2022-07-21T06:07:41;20.20;99.90
1878;DHT22;939;51.426;6.972;2022-07-21T06:10:08;20.20;99.90
1878;DHT22;939;51.426;6.972;2022-07-21T06:12:37;20.20;99.90
1878;DHT22;939;51.426;6.972;2022-07-21T06:15:06;20.10;99.90
1878;DHT22;939;51.426;6.972;2022-07-21T06:17:38;20.10;99.90
1878;DHT22;939;51.426;6.972;2022-07-21T06:20:06;20.10;99.90
1878;DHT22;939;51.426;6.972;2022-07-21T06:22:39;20.10;99.90
1878;DHT22;939;51.426;6.972;2022-07-21T06:25:06;20.10;99.90
1878;DHT22;939;51.426;6.972;2022-07-21T06:27:33;20.00;99.90
1878;DHT22;939;51.426;6.972;2022-07-21T06:30:00;20.00;99.90
1878;DHT22;939;51.426;6.972;2022-07-21T06:32:27;20.00;99.90
1878;DHT22;939;51.426;6.972;2022-07-21T06:34:54;20.10;99.90
1878;DHT22;939;51.426;6.972;2022-07-21T06:37:21;20.20;99.90
1878;DHT22;939;51.426;6.972;2022-07-21T06:39:52;20.20;99.90
1878;DHT22;939;51.426;6.972;2022-07-21T06:42:19;20.20;99.90
1878;DHT22;939;51.426;6.972;2022-07-21T06:44:46;20.10;99.90
1878;DHT22;939;51.426;6.972;2022-07-21T06:47:13;20.20;99.90
1878;DHT22;939;51.426;6.972;2022-07-21T06:49:40;20.30;99.90
1878;DHT22;939;51.426;6.972;2022-07-21T06:52:07;20.40;99.90
1878;DHT22;939;51.426;6.972;2022-07-21T06:54:37;20.40;99.90
1878;DHT22;939;51.426;6.972;2022-07-21T06:57:12;20.20;99.90
1878;DHT22;939;51.426;6.972;2022-07-21T06:59:39;20.20;99.90
1878;DHT22;939;51.426;6.972;2022-07-21T07:02:09;20.20;99.90
1878;DHT22;939;51.426;6.972;2022-07-21T07:04:36;20.20;99.90
1878;DHT22;939;51.426;6.972;2022-07-21T07:07:07;20.20;99.90
1878;DHT22;939;51.426;6.972;2022-07-21T07:09:37;20.20;99.90
1878;DHT22;939;51.426;6.972;2022-07-21T07:12:05;20.30;99.90
1878;DHT22;939;51.426;6.972;2022-07-21T07:14:36;20.40;99.90
1878;DHT22;939;51.426;6.972;2022-07-21T07:17:06;20.50;99.90
1878;DHT22;939;51.426;6.972;2022-07-21T07:19:39;20.60;99.90
1878;DHT22;939;51.426;6.972;2022-07-21T11:50:20;20.30;99.90
1878;DHT22;939;51.426;6.972;2022-07-21T11:52:47;20.20;99.90
1878;DHT22;939;51.426;6.972;2022-07-21T11:55:14;20.30;99.90
1878;DHT22;939;51.426;6.972;2022-07-21T11:57:45;20.40;99.90
1878;DHT22;939;51.426;6.972;2022-07-21T12:00:14;20.40;99.90
1878;DHT22;939;51.426;6.972;2022-07-21T12:02:44;20.50;99.90
1878;DHT22;939;51.426;6.972;2022-07-21T12:05:11;20.50;99.90
1878;DHT22;939;51.426;6.972;2022-07-21T12:07:45;20.50;99.90
1878;DHT22;939;51.426;6.972;2022-07-21T12:10:20;20.50;99.90
1878;DHT22;939;51.426;6.972;2022-07-21T12:12:49;20.60;99.90
1878;DHT22;939;51.426;6.972;2022-07-21T12:15:18;20.50;99.90
1878;DHT22;939;51.426;6.972;2022-07-21T12:17:47;20.60;99.90
1878;DHT22;939;51.426;6.972;2022-07-21T12:20:24;20.50;99.90
1878;DHT22;939;51.426;6.972;2022-07-21T12:22:56;20.50;99.90
1878;DHT22;939;51.426;6.972;2022-07-21T12:25:31;20.50;99.90
1878;DHT22;939;51.426;6.972;2022-07-21T12:27:59;20.50;99.90
1878;DHT22;939;51.426;6.972;2022-07-21T12:30:32;20.50;99.90
1878;DHT22;939;51.426;6.972;2022-07-21T12:33:05;20.30;99.90
1878;DHT22;939;51.426;6.972;2022-07-21T12:35:34;20.40;99.90
1878;DHT22;939;51.426;6.972;2022-07-21T12:38:10;20.40;99.90
1878;DHT22;939;51.426;6.972;2022-07-21T12:40:41;20.20;99.90
1878;DHT22;939;51.426;6.972;2022-07-21T12:43:14;20.10;99.90
1878;DHT22;939;51.426;6.972;2022-07-21T12:45:49;20.20;99.90
1878;DHT22;939;51.426;6.972;2022-07-21T12:48:18;20.20;99.90
1878;DHT22;939;51.426;6.972;2022-07-21T12:51:09;20.20;99.90
1878;DHT22;939;51.426;6.972;2022-07-21T12:53:40;20.40;99.90
1878;DHT22;939;51.426;6.972;2022-07-21T12:56:08;20.50;99.90
1878;DHT22;939;51.426;6.972;2022-07-21T12:58:36;20.60;99.90
1878;DHT22;939;51.426;6.972;2022-07-21T13:01:03;20.60;99.90
1878;DHT22;939;51.426;6.972;2022-07-21T13:03:33;20.60;99.90
1878;DHT22;939;51.426;6.972;2022-07-21T13:08:29;20.50;99.90
1878;DHT22;939;51.426;6.972;2022-07-21T13:10:57;20.50;99.90
1878;DHT22;939;51.426;6.972;2022-07-21T13:13:24;20.50;99.90
1878;DHT22;939;51.426;6.972;2022-07-21T13:15:51;20.50;99.90
1878;DHT22;939;51.426;6.972;2022-07-21T13:18:18;20.50;99.90
1878;DHT22;939;51.426;6.972;2022-07-21T13:20:45;20.60;99.90
1878;DHT22;939;51.426;6.972;2022-07-21T13:23:12;20.70;99.90
1878;DHT22;939;51.426;6.972;2022-07-21T13:25:39;20.70;99.90
1878;DHT22;939;51.426;6.972;2022-07-21T13:28:07;20.50;99.90
1878;DHT22;939;51.426;6.972;2022-07-21T13:30:34;20.50;99.90
1878;DHT22;939;51.426;6.972;2022-07-21T13:33:02;20.40;99.90
1878;DHT22;939;51.426;6.972;2022-07-21T13:35:29;20.40;99.90
1878;DHT22;939;51.426;6.972;2022-07-21T13:37:57;20.20;99.90
1878;DHT22;939;51.426;6.972;2022-07-21T13:40:25;20.10;99.90
1878;DHT22;939;51.426;6.972;2022-07-21T13:42:52;20.10;99.90
1878;DHT22;939;51.426;6.972;2022-07-21T13:45:21;20.20;99.90
1878;DHT22;939;51.426;6.972;2022-07-21T13:47:48;20.30;99.90
1878;DHT22;939;51.426;6.972;2022-07-21T13:50:14;20.20;99.90
1878;DHT22;939;51.426;6.972;2022-07-21T13:52:41;20.20;99.90
1878;DHT22;939;51.426;6.972;2022-07-21T13:55:09;20.20;99.90
1878;DHT22;939;51.426;6.972;2022-07-21T13:57:36;20.20;99.90
1878;DHT22;939;51.426;6.972;2022-07-21T14:00:04;20.20;99.90
1878;DHT22;939;51.426;6.972;2022-07-21T14:02:33;20.20;99.90
1878;DHT22;939;51.426;6.972;2022-07-21T14:05:00;20.10;99.90
1878;DHT22;939;51.426;6.972;2022-07-21T14:07:27;20.00;99.90
1878;DHT22;939;51.426;6.972;2022-07-21T14:09:54;20.10;99.90
1878;DHT22;939;51.426;6.972;2022-07-21T14:12:21;20.00;99.90
1878;DHT22;939;51.426;6.972;2022-07-21T14:14:48;20.10;99.90
1878;DHT22;939;51.426;6.972;2022-07-21T14:17:16;20.10;99.90
1878;DHT22;939;51.426;6.972;2022-07-21T14:19:44;20.20;99.90
1878;DHT22;939;51.426;6.972;2022-07-21T14:22:12;20.30;99.90
1878;DHT22;939;51.426;6.972;2022-07-21T14:24:39;20.20;99.90
1878;DHT22;939;51.426;6.972;2022-07-21T14:27:24;20.10;99.90
1878;DHT22;939;51.426;6.972;2022-07-21T14:29:51;20.20;99.90
1878;DHT22;939;51.426;6.972;2022-07-21T14:32:18;20.10;99.90
1878;DHT22;939;51.426;6.972;2022-07-21T14:34:48;20.10;99.90
1878;DHT22;939;51.426;6.972;2022-07-21T14:37:16;20.20;99.90
1878;DHT22;939;51.426;6.972;2022-07-21T14:39:44;20.10;99.90
1878;DHT22;939;51.426;6.972;2022-07-21T14:42:11;20.20;99.90
1878;DHT22;939;51.426;6.972;2022-07-21T14:44:38;20.30;99.90
1878;DHT22;939;51.426;6.972;2022-07-21T14:47:06;20.30;99.90
1878;DHT22;939;51.426;6.972;2022-07-21T14:49:33;20.20;99.90
1878;DHT22;939;51.426;6.972;2022-07-21T14:52:01;20.30;99.90
1878;DHT22;939;51.426;6.972;2022-07-21T14:54:29;20.30;99.90
1878;DHT22;939;51.426;6.972;2022-07-21T14:56:56;20.30;99.90
1878;DHT22;939;51.426;6.972;2022-07-21T14:59:23;20.20;99.90
1878;DHT22;939;51.426;6.972;2022-07-21T15:01:50;20.10;99.90
1878;DHT22;939;51.426;6.972;2022-07-21T15:04:16;20.20;99.90
1878;DHT22;939;51.426;6.972;2022-07-21T15:06:44;20.20;99.90
1878;DHT22;939;51.426;6.972;2022-07-21T15:09:13;20.10;99.90
1878;DHT22;939;51.426;6.972;2022-07-21T15:11:40;20.20;99.90
1878;DHT22;939;51.426;6.972;2022-07-21T15:14:20;20.20;99.90
1878;DHT22;939;51.426;6.972;2022-07-21T15:16:50;20.10;99.90
1878;DHT22;939;51.426;6.972;2022-07-21T15:19:29;20.10;99.90
1878;DHT22;939;51.426;6.972;2022-07-21T15:21:57;20.00;99.90
1878;DHT22;939;51.426;6.972;2022-07-21T15:24:26;20.00;99.90
1878;DHT22;939;51.426;6.972;2022-07-21T15:26:54;20.00;99.90
1878;DHT22;939;51.426;6.972;2022-07-21T15:29:21;19.90;99.90
1878;DHT22;939;51.426;6.972;2022-07-21T15:31:48;20.00;99.90
1878;DHT22;939;51.426;6.972;2022-07-21T15:34:15;20.10;99.90
1878;DHT22;939;51.426;6.972;2022-07-21T15:36:42;20.10;99.90
1878;DHT22;939;51.426;6.972;2022-07-21T15:39:11;19.90;99.90
1878;DHT22;939;51.426;6.972;2022-07-21T15:41:42;20.00;99.90
1878;DHT22;939;51.426;6.972;2022-07-21T15:44:11;20.10;99.90
1878;DHT22;939;51.426;6.972;2022-07-21T15:46:37;20.00;99.90
1878;DHT22;939;51.426;6.972;2022-07-21T15:49:07;20.00;99.90
1878;DHT22;939;51.426;6.972;2022-07-21T15:51:34;20.10;99.90
1878;DHT22;939;51.426;6.972;2022-07-21T15:54:02;20.20;99.90
1878;DHT22;939;51.426;6.972;2022-07-21T15:56:29;20.00;99.90
1878;DHT22;939;51.426;6.972;2022-07-21T15:59:00;20.00;99.90
1878;DHT22;939;51.426;6.972;2022-07-21T16:01:44;20.10;99.90
1878;DHT22;939;51.426;6.972;2022-07-21T16:04:11;20.20;99.90
1878;DHT22;939;51.426;6.972;2022-07-21T16:06:38;19.90;99.90
1878;DHT22;939;51.426;6.972;2022-07-21T16:09:06;20.00;99.90
1878;DHT22;939;51.426;6.972;2022-07-21T16:11:33;20.10;99.90
1878;DHT22;939;51.426;6.972;2022-07-21T16:14:01;20.10;99.90
1878;DHT22;939;51.426;6.972;2022-07-21T16:16:28;20.10;99.90
1878;DHT22;939;51.426;6.972;2022-07-21T16:18:57;20.00;99.90
1878;DHT22;939;51.426;6.972;2022-07-21T16:21:24;19.90;99.90
1878;DHT22;939;51.426;6.972;2022-07-21T16:23:50;19.80;99.90
1878;DHT22;939;51.426;6.972;2022-07-21T16:26:17;19.90;99.90
1878;DHT22;939;51.426;6.972;2022-07-21T16:28:45;19.90;99.90
1878;DHT22;939;51.426;6.972;2022-07-21T16:31:13;19.90;99.90
1878;DHT22;939;51.426;6.972;2022-07-21T16:33:41;20.00;99.90
1878;DHT22;939;51.426;6.972;2022-07-21T16:36:09;20.00;99.90
1878;DHT22;939;51.426;6.972;2022-07-21T16:38:39;20.10;99.90
1878;DHT22;939;51.426;6.972;2022-07-21T16:41:06;20.00;99.90
1878;DHT22;939;51.426;6.972;2022-07-21T16:43:33;19.80;99.90
1878;DHT22;939;51.426;6.972;2022-07-21T16:46:00;19.90;99.90
1878;DHT22;939;51.426;6.972;2022-07-21T16:48:29;20.00;99.90
1878;DHT22;939;51.426;6.972;2022-07-21T16:50:55;20.00;99.90
1878;DHT22;939;51.426;6.972;2022-07-21T16:53:22;20.00;99.90
1878;DHT22;939;51.426;6.972;2022-07-21T16:55:49;20.00;99.90
1878;DHT22;939;51.426;6.972;2022-07-21T16:58:20;20.00;99.90
1878;DHT22;939;51.426;6.972;2022-07-21T17:01:12;19.80;99.90
1878;DHT22;939;51.426;6.972;2022-07-21T17:03:43;19.70;99.90
1878;DHT22;939;51.426;6.972;2022-07-21T17:06:10;19.60;99.90
1878;DHT22;939;51.426;6.972;2022-07-21T17:08:43;19.70;99.90
1878;DHT22;939;51.426;6.972;2022-07-21T17:11:10;19.70;99.90
1878;DHT22;939;51.426;6.972;2022-07-21T17:13:38;19.50;99.90
1878;DHT22;939;51.426;6.972;2022-07-21T17:16:05;19.60;99.90
1878;DHT22;939;51.426;6.972;2022-07-21T17:18:33;19.70;99.90
1878;DHT22;939;51.426;6.972;2022-07-21T17:21:01;19.70;99.90
1878;DHT22;939;51.426;6.972;2022-07-21T17:23:31;19.60;99.90
1878;DHT22;939;51.426;6.972;2022-07-21T17:25:58;19.60;99.90
1878;DHT22;939;51.426;6.972;2022-07-21T17:28:26;19.60;99.90
1878;DHT22;939;51.426;6.972;2022-07-21T17:30:53;19.60;99.90
1878;DHT22;939;51.426;6.972;2022-07-21T17:33:19;19.60;99.90
1878;DHT22;939;51.426;6.972;2022-07-21T17:35:47;19.60;99.90
1878;DHT22;939;51.426;6.972;2022-07-21T17:38:15;19.60;99.90
1878;DHT22;939;51.426;6.972;2022-07-21T17:40:42;19.60;99.90
1878;DHT22;939;51.426;6.972;2022-07-21T17:43:09;19.60;99.90
1878;DHT22;939;51.426;6.972;2022-07-21T17:45:36;19.60;99.90
1878;DHT22;939;51.426;6.972;2022-07-21T17:48:04;19.60;99.90
1878;DHT22;939;51.426;6.972;2022-07-21T17:50:31;19.50;99.90
1878;DHT22;939;51.426;6.972;2022-07-21T17:52:58;19.50;99.90
1878;DHT22;939;51.426;6.972;2022-07-21T17:55:26;19.40;99.90
1878;DHT22;939;51.426;6.972;2022-07-21T17:57:53;19.30;99.90
1878;DHT22;939;51.426;6.972;2022-07-21T18:00:37;19.40;99.90
1878;DHT22;939;51.426;6.972;2022-07-21T18:03:04;19.30;99.90
1878;DHT22;939;51.426;6.972;2022-07-21T18:05:31;19.40;99.90
1878;DHT22;939;51.426;6.972;2022-07-21T18:07:58;19.30;99.90
1878;DHT22;939;51.426;6.972;2022-07-21T18:10:27;19.30;99.90
1878;DHT22;939;51.426;6.972;2022-07-21T18:12:54;19.40;99.90
1878;DHT22;939;51.426;6.972;2022-07-21T18:15:21;19.20;99.90
1878;DHT22;939;51.426;6.972;2022-07-21T18:17:48;19.30;99.90
1878;DHT22;939;51.426;6.972;2022-07-21T18:20:15;19.30;99.90
1878;DHT22;939;51.426;6.972;2022-07-21T18:22:41;19.40;99.90
1878;DHT22;939;51.426;6.972;2022-07-21T18:25:09;19.40;99.90
1878;DHT22;939;51.426;6.972;2022-07-21T18:27:40;19.40;99.90
1878;DHT22;939;51.426;6.972;2022-07-21T18:30:08;19.40;99.90
1878;DHT22;939;51.426;6.972;2022-07-21T18:32:35;19.40;99.90
1878;DHT22;939;51.426;6.972;2022-07-21T18:35:02;19.40;99.90
1878;DHT22;939;51.426;6.972;2022-07-21T18:37:29;19.40;99.90
1878;DHT22;939;51.426;6.972;2022-07-21T18:39:56;19.40;99.90
1878;DHT22;939;51.426;6.972;2022-07-21T18:42:23;19.40;99.90
1878;DHT22;939;51.426;6.972;2022-07-21T18:44:52;19.40;99.90
1878;DHT22;939;51.426;6.972;2022-07-21T18:47:19;19.30;99.90
1878;DHT22;939;51.426;6.972;2022-07-21T18:49:46;19.30;99.90
1878;DHT22;939;51.426;6.972;2022-07-21T18:52:13;19.20;99.90
1878;DHT22;939;51.426;6.972;2022-07-21T18:54:40;19.20;99.90
1878;DHT22;939;51.426;6.972;2022-07-21T18:57:07;19.20;99.90
1878;DHT22;939;51.426;6.972;2022-07-21T18:59:33;19.30;99.90
1878;DHT22;939;51.426;6.972;2022-07-21T19:02:02;19.30;99.90
1878;DHT22;939;51.426;6.972;2022-07-21T19:04:29;19.40;99.90
1878;DHT22;939;51.426;6.972;2022-07-21T19:06:56;19.40;99.90
